KCAE

Columbia Metropolitan

Airport
ICAO code
KCAE
Summary
ICAO Region
NAM
ICAO Territory
Location

Columbia, South Carolina,

Coordinates
33° 56' 20" N , 81° 7' 10" W
KCC
Cfa
Metar
Observation
KCAE 110756Z 21003KT 10SM CLR 22/21 A3009 RMK AO2 SLP187 T02220206
Station
Columbia, Columbia Metropolitan Airport
Date/Time
2022-08-11 07:56:00
Wind direction
210°
Wind speed
03 kts
Lowest cloud amount
n/a
Temperature
22.2°C
Dew point
20.6°C
Humidity
90%
Weather condition
n/a

Description

Columbia Metropolitan Airport is the main airport for Columbia, South Carolina. The airport lies 8 km southwest of Columbia's central business district, in Lexington County.

Climatology

Humid “subtropical” climate (Köppen climate classification Cfa) - characterized by hot, humid summers and cool winters. Significant amounts of precipitation occur in all seasons in most areas. Winter rainfall (and sometimes snowfall) is associated with large storms that the westerlies steer from west to east. Most summer rainfall occurs during thunderstorms and occasional tropical storms (hurricanes).

Airport map

Aerial View

Airport accidents

SKYbrary Partners:

Safety knowledge contributed by: